Time;durP1;ratioP1;P1;durP2;ratioP2;P2;SDS_P1;SDS_P2;PMS_P1;PMS_P2;Temp;Humidity;BMP_temperature;BMP_pressure;BME280_temperature;BME280_humidity;BME280_pressure;Samples;Min_cycle;Max_cycle;Signal;HPM_P1;HPM_P2
2022/10/20 00:01:45;;;;;;;;;32.00;26.33;;;;;;;;5000560;28;45161;-70
2022/10/20 00:04:11;;;;;;;;;25.67;21.67;;;;;;;;5000076;28;45400;-70
2022/10/20 00:06:36;;;;;;;;;23.67;22.33;;;;;;;;5000362;28;45303;-70
2022/10/20 00:09:02;;;;;;;;;17.00;16.00;;;;;;;;5001606;28;45325;-70
2022/10/20 00:11:28;;;;;;;;;20.00;20.00;;;;;;;;4999994;28;45261;-70
2022/10/20 00:13:54;;;;;;;;;20.33;19.00;;;;;;;;4999537;28;47232;-70
2022/10/20 00:16:20;;;;;;;;;24.00;20.33;;;;;;;;4999825;28;45513;-70
2022/10/20 00:18:46;;;;;;;;;23.00;19.67;;;;;;;;4999776;28;45275;-71
2022/10/20 00:21:12;;;;;;;;;20.00;17.67;;;;;;;;5000564;28;45286;-70
2022/10/20 00:23:37;;;;;;;;;21.33;19.33;;;;;;;;5009255;28;46167;-71
2022/10/20 00:26:07;;;;;;;;;23.67;20.67;;;;;;;;5019380;28;45271;-70
2022/10/20 00:28:32;;;;;;;;;21.67;19.33;;;;;;;;5018714;28;45826;-70
2022/10/20 00:30:58;;;;;;;;;22.67;19.33;;;;;;;;5015754;28;45382;-70
2022/10/20 00:33:23;;;;;;;;;19.67;17.67;;;;;;;;4999453;28;45357;-70
2022/10/20 00:35:48;;;;;;;;;25.67;22.00;;;;;;;;4999246;28;45372;-70
2022/10/20 00:38:14;;;;;;;;;25.00;22.00;;;;;;;;4999449;28;45413;-70
2022/10/20 00:40:39;;;;;;;;;21.00;19.67;;;;;;;;4999654;28;45445;-70
2022/10/20 00:43:08;;;;;;;;;28.00;23.00;;;;;;;;4999367;28;45526;-70
2022/10/20 00:45:33;;;;;;;;;26.33;19.33;;;;;;;;4999646;28;45348;-70
2022/10/20 00:48:03;;;;;;;;;20.67;19.00;;;;;;;;4999397;28;45223;-70
2022/10/20 00:50:30;;;;;;;;;21.00;19.33;;;;;;;;4999455;28;45283;-70
2022/10/20 00:52:56;;;;;;;;;14.67;13.00;;;;;;;;4999066;28;45470;-70
2022/10/20 00:55:23;;;;;;;;;21.00;21.00;;;;;;;;4999059;28;45552;-70
2022/10/20 00:57:50;;;;;;;;;20.00;18.00;;;;;;;;4998223;28;45876;-70
2022/10/20 01:00:15;;;;;;;;;19.67;18.00;;;;;;;;4999302;28;45413;-70
2022/10/20 01:02:41;;;;;;;;;20.67;20.00;;;;;;;;5015991;28;46921;-70
2022/10/20 01:05:07;;;;;;;;;26.67;20.00;;;;;;;;5019072;28;45310;-70
2022/10/20 01:07:32;;;;;;;;;18.33;16.67;;;;;;;;5018593;28;45274;-70
2022/10/20 01:09:58;;;;;;;;;18.67;18.67;;;;;;;;5018948;28;45441;-70
2022/10/20 01:12:43;;;;;;;;;18.67;17.00;;;;;;;;5018506;28;46989;-70
2022/10/20 01:15:37;;;;;;;;;21.33;17.00;;;;;;;;5018051;28;45503;-69
2022/10/20 01:18:02;;;;;;;;;18.00;15.00;;;;;;;;5018648;28;45472;-70
2022/10/20 01:20:30;;;;;;;;;23.00;18.67;;;;;;;;5018932;28;45336;-70
2022/10/20 01:22:58;;;;;;;;;23.33;18.67;;;;;;;;5018421;28;45688;-69
2022/10/20 01:25:38;;;;;;;;;17.00;15.33;;;;;;;;5018538;28;45374;-70
2022/10/20 01:28:11;;;;;;;;;19.67;15.00;;;;;;;;5018549;28;45464;-69
2022/10/20 01:30:40;;;;;;;;;16.00;16.00;;;;;;;;5018209;28;45452;-69
2022/10/20 01:33:08;;;;;;;;;15.33;14.67;;;;;;;;4998459;28;46855;-69
2022/10/20 01:35:33;;;;;;;;;13.33;9.67;;;;;;;;4998562;28;45267;-70
2022/10/20 01:38:05;;;;;;;;;15.33;12.00;;;;;;;;4998465;28;45533;-69
2022/10/20 01:40:42;;;;;;;;;21.00;18.00;;;;;;;;4998846;28;45443;-70
2022/10/20 01:43:10;;;;;;;;;20.33;16.67;;;;;;;;4998311;28;46414;-69
2022/10/20 01:45:38;;;;;;;;;15.00;13.33;;;;;;;;5000101;28;45366;-70
2022/10/20 01:48:05;;;;;;;;;14.50;13.25;;;;;;;;5018349;28;45232;-69
2022/10/20 01:50:32;;;;;;;;;15.00;15.00;;;;;;;;5018299;28;45301;-69
2022/10/20 01:52:58;;;;;;;;;15.33;15.33;;;;;;;;5017717;28;45563;-70
2022/10/20 01:55:23;;;;;;;;;16.33;14.33;;;;;;;;5018049;28;45365;-69
2022/10/20 01:57:54;;;;;;;;;21.33;16.33;;;;;;;;5018122;28;45444;-70
2022/10/20 02:00:19;;;;;;;;;15.33;15.33;;;;;;;;5018521;28;45338;-70
2022/10/20 02:03:03;;;;;;;;;16.67;15.00;;;;;;;;5017376;28;46759;-70
2022/10/20 02:05:43;;;;;;;;;13.33;10.67;;;;;;;;5017947;28;45396;-69
2022/10/20 02:08:27;;;;;;;;;14.67;13.67;;;;;;;;5017864;28;45447;-69
2022/10/20 02:10:55;;;;;;;;;15.00;15.00;;;;;;;;5017809;28;45344;-69
2022/10/20 02:13:20;;;;;;;;;19.00;16.33;;;;;;;;5017812;28;45460;-70
2022/10/20 02:15:49;;;;;;;;;15.33;13.00;;;;;;;;5017291;28;45348;-69
2022/10/20 02:18:17;;;;;;;;;18.67;16.33;;;;;;;;5017904;28;45394;-70
2022/10/20 02:20:44;;;;;;;;;15.67;13.33;;;;;;;;5018072;28;45267;-69
2022/10/20 02:23:09;;;;;;;;;17.33;13.33;;;;;;;;5017240;28;47337;-69
2022/10/20 02:25:36;;;;;;;;;16.67;15.00;;;;;;;;5015921;28;45483;-70
2022/10/20 02:28:04;;;;;;;;;15.67;14.67;;;;;;;;5017576;28;45369;-70
2022/10/20 02:30:30;;;;;;;;;15.67;12.67;;;;;;;;5017551;28;45337;-70
2022/10/20 02:32:55;;;;;;;;;17.33;15.00;;;;;;;;5017166;28;47143;-70
2022/10/20 02:35:22;;;;;;;;;16.67;15.00;;;;;;;;5017480;28;45352;-70
2022/10/20 02:37:47;;;;;;;;;15.00;14.00;;;;;;;;5017280;28;45397;-70
2022/10/20 02:40:12;;;;;;;;;17.67;17.33;;;;;;;;5017538;28;45298;-70
2022/10/20 02:42:39;;;;;;;;;13.33;13.33;;;;;;;;5017395;28;45305;-70
2022/10/20 02:45:05;;;;;;;;;17.33;15.00;;;;;;;;5017330;28;45434;-69
2022/10/20 02:47:30;;;;;;;;;13.67;13.67;;;;;;;;5016650;28;45357;-70
2022/10/20 02:49:55;;;;;;;;;15.00;13.67;;;;;;;;5017633;28;45330;-70
2022/10/20 02:52:21;;;;;;;;;21.33;15.67;;;;;;;;5017079;28;46521;-71
2022/10/20 02:54:46;;;;;;;;;15.67;14.67;;;;;;;;5017046;28;45348;-70
2022/10/20 02:57:11;;;;;;;;;19.67;16.67;;;;;;;;5017441;28;45353;-70
2022/10/20 02:59:37;;;;;;;;;20.00;16.00;;;;;;;;5017337;28;45206;-70
2022/10/20 03:02:02;;;;;;;;;16.00;13.67;;;;;;;;5016652;28;45543;-70
2022/10/20 03:04:27;;;;;;;;;14.67;14.00;;;;;;;;5016511;28;45496;-70
2022/10/20 03:06:52;;;;;;;;;19.00;12.33;;;;;;;;5016898;28;45205;-70
2022/10/20 03:09:18;;;;;;;;;19.00;16.00;;;;;;;;5017097;28;45455;-70
2022/10/20 03:11:43;;;;;;;;;17.67;17.00;;;;;;;;5016856;28;45401;-70
2022/10/20 03:14:09;;;;;;;;;12.67;12.67;;;;;;;;5016907;28;45428;-70
2022/10/20 03:16:34;;;;;;;;;15.33;14.00;;;;;;;;5017153;28;45433;-70
2022/10/20 03:18:59;;;;;;;;;18.33;15.33;;;;;;;;5016861;28;45258;-70
2022/10/20 03:21:25;;;;;;;;;21.67;16.00;;;;;;;;5017710;28;46117;-70
2022/10/20 03:23:50;;;;;;;;;18.67;14.67;;;;;;;;5020342;28;45246;-70
2022/10/20 03:26:15;;;;;;;;;16.33;14.33;;;;;;;;5020293;28;45333;-70
2022/10/20 03:28:41;;;;;;;;;17.33;12.67;;;;;;;;5020681;28;45337;-70
2022/10/20 03:31:06;;;;;;;;;17.33;14.33;;;;;;;;5019527;28;45457;-70
2022/10/20 03:33:32;;;;;;;;;13.33;12.00;;;;;;;;5020323;28;45301;-70
2022/10/20 03:35:57;;;;;;;;;17.00;15.67;;;;;;;;5020398;28;45242;-70
2022/10/20 03:38:22;;;;;;;;;16.67;14.67;;;;;;;;5020642;28;45417;-70
2022/10/20 03:40:48;;;;;;;;;19.33;17.00;;;;;;;;5019893;28;46749;-70
2022/10/20 03:43:14;;;;;;;;;19.67;15.33;;;;;;;;5020179;28;45333;-70
2022/10/20 03:45:40;;;;;;;;;15.67;13.33;;;;;;;;5019956;28;45293;-70
2022/10/20 03:48:05;;;;;;;;;18.00;15.00;;;;;;;;5019808;28;45373;-69
2022/10/20 03:50:30;;;;;;;;;13.33;13.00;;;;;;;;5019815;28;46086;-70
2022/10/20 03:52:55;;;;;;;;;19.00;18.00;;;;;;;;5019867;28;45178;-70
2022/10/20 03:55:20;;;;;;;;;16.67;15.00;;;;;;;;5020009;28;45402;-70
2022/10/20 03:57:46;;;;;;;;;18.33;14.33;;;;;;;;5020215;28;45440;-70
2022/10/20 04:00:11;;;;;;;;;20.00;17.00;;;;;;;;5019705;28;46197;-69
2022/10/20 04:02:37;;;;;;;;;15.33;15.00;;;;;;;;5019478;28;45353;-69
2022/10/20 04:05:03;;;;;;;;;18.00;14.67;;;;;;;;5019572;28;45427;-70
2022/10/20 04:07:28;;;;;;;;;15.00;15.00;;;;;;;;5020065;28;45563;-70
2022/10/20 04:09:54;;;;;;;;;19.67;18.67;;;;;;;;5019525;28;46276;-69
2022/10/20 04:12:20;;;;;;;;;22.00;17.00;;;;;;;;5019591;28;45441;-69
2022/10/20 04:14:45;;;;;;;;;18.00;15.00;;;;;;;;5019807;28;45427;-70
2022/10/20 04:17:11;;;;;;;;;17.33;16.00;;;;;;;;5019714;28;45523;-70
2022/10/20 04:19:36;;;;;;;;;15.00;15.00;;;;;;;;5019482;28;45430;-70
2022/10/20 04:22:01;;;;;;;;;16.33;14.67;;;;;;;;5019441;28;45433;-70
2022/10/20 04:24:26;;;;;;;;;16.67;16.33;;;;;;;;5019310;28;45342;-70
2022/10/20 04:26:51;;;;;;;;;17.67;13.67;;;;;;;;5019788;28;45170;-70
2022/10/20 04:29:17;;;;;;;;;24.33;20.67;;;;;;;;5019269;28;46637;-70
2022/10/20 04:31:43;;;;;;;;;19.33;17.33;;;;;;;;5019109;28;45293;-70
2022/10/20 04:34:08;;;;;;;;;22.33;19.00;;;;;;;;5019554;28;45369;-70
2022/10/20 04:36:33;;;;;;;;;21.00;19.33;;;;;;;;5019668;28;45419;-70
2022/10/20 04:38:59;;;;;;;;;17.67;14.67;;;;;;;;5019109;28;46508;-70
2022/10/20 04:41:24;;;;;;;;;24.67;19.00;;;;;;;;5019043;28;45429;-70
2022/10/20 04:43:50;;;;;;;;;36.67;32.67;;;;;;;;5019330;28;45274;-70
2022/10/20 04:46:16;;;;;;;;;24.00;20.33;;;;;;;;5019540;28;45144;-70
2022/10/20 04:48:43;;;;;;;;;23.67;19.00;;;;;;;;5019031;28;45381;-70
2022/10/20 04:51:09;;;;;;;;;19.67;16.33;;;;;;;;5019086;28;45333;-70
2022/10/20 04:53:34;;;;;;;;;22.33;19.00;;;;;;;;5018955;28;45330;-70
2022/10/20 04:56:00;;;;;;;;;22.67;19.00;;;;;;;;5019079;28;45484;-70
2022/10/20 04:58:25;;;;;;;;;21.33;16.00;;;;;;;;5019001;28;46373;-70
2022/10/20 05:00:50;;;;;;;;;15.33;14.33;;;;;;;;5018511;28;45432;-70
2022/10/20 05:03:17;;;;;;;;;16.67;15.33;;;;;;;;5018827;28;45397;-70
2022/10/20 05:05:42;;;;;;;;;20.67;17.00;;;;;;;;5019154;28;45365;-70
2022/10/20 05:08:08;;;;;;;;;17.33;16.67;;;;;;;;5018484;28;46342;-70
2022/10/20 05:10:33;;;;;;;;;19.00;14.33;;;;;;;;5018294;28;45284;-70
2022/10/20 05:12:58;;;;;;;;;17.33;17.00;;;;;;;;5017106;28;45322;-70
2022/10/20 05:15:23;;;;;;;;;17.00;15.67;;;;;;;;5001769;28;45429;-70
2022/10/20 05:17:48;;;;;;;;;22.00;21.67;;;;;;;;5018353;28;46568;-70
2022/10/20 05:20:14;;;;;;;;;17.33;15.00;;;;;;;;5018578;28;45393;-70
2022/10/20 05:22:39;;;;;;;;;21.00;17.67;;;;;;;;5018545;28;45381;-71
2022/10/20 05:25:04;;;;;;;;;17.00;16.67;;;;;;;;5018606;28;45444;-70
2022/10/20 05:27:29;;;;;;;;;16.67;15.33;;;;;;;;5018666;28;46481;-70
2022/10/20 05:29:55;;;;;;;;;18.33;17.00;;;;;;;;5018118;28;45271;-70
2022/10/20 05:32:20;;;;;;;;;21.00;18.00;;;;;;;;5018508;28;45428;-70
2022/10/20 05:34:45;;;;;;;;;18.67;17.00;;;;;;;;5018769;28;45207;-69
2022/10/20 05:37:11;;;;;;;;;19.33;17.33;;;;;;;;5017912;28;46771;-70
2022/10/20 05:39:36;;;;;;;;;18.00;16.00;;;;;;;;5018429;28;45202;-70
2022/10/20 05:42:01;;;;;;;;;20.33;19.00;;;;;;;;5018344;28;45420;-70
2022/10/20 05:44:26;;;;;;;;;20.67;19.33;;;;;;;;5017958;28;45487;-69
2022/10/20 05:46:51;;;;;;;;;19.33;17.33;;;;;;;;5018172;28;45447;-70
2022/10/20 05:49:17;;;;;;;;;19.67;19.67;;;;;;;;5018072;28;45216;-70
2022/10/20 05:51:43;;;;;;;;;21.33;19.67;;;;;;;;5018074;28;45495;-70
2022/10/20 05:54:09;;;;;;;;;20.00;17.67;;;;;;;;5018261;28;45509;-71
2022/10/20 05:56:35;;;;;;;;;18.67;18.67;;;;;;;;5017891;28;46261;-70
2022/10/20 05:59:00;;;;;;;;;20.67;20.67;;;;;;;;5017421;28;45514;-69
2022/10/20 06:01:27;;;;;;;;;18.33;16.67;;;;;;;;5017568;28;45172;-71
2022/10/20 06:03:56;;;;;;;;;17.33;16.67;;;;;;;;5018128;28;45512;-70
2022/10/20 06:06:24;;;;;;;;;18.33;18.33;;;;;;;;5017779;28;46414;-71
2022/10/20 06:08:49;;;;;;;;;28.33;22.00;;;;;;;;5017819;28;45161;-70
2022/10/20 06:11:15;;;;;;;;;20.33;17.33;;;;;;;;5017765;28;45873;-70
2022/10/20 06:13:40;;;;;;;;;23.67;19.00;;;;;;;;5018102;28;45496;-70
2022/10/20 06:16:16;;;;;;;;;21.67;20.00;;;;;;;;5016545;28;47163;-70
2022/10/20 06:18:42;;;;;;;;;19.33;19.33;;;;;;;;5017836;28;45436;-71
2022/10/20 06:21:13;;;;;;;;;23.67;20.33;;;;;;;;5017745;28;45267;-70
2022/10/20 06:23:38;;;;;;;;;22.67;21.33;;;;;;;;5017846;28;45294;-69
2022/10/20 06:26:07;;;;;;;;;21.67;18.67;;;;;;;;5016719;28;46959;-69
2022/10/20 06:28:34;;;;;;;;;23.67;19.67;;;;;;;;5016047;28;45374;-69
2022/10/20 06:30:59;;;;;;;;;16.67;16.00;;;;;;;;5017252;28;45322;-71
2022/10/20 06:33:27;;;;;;;;;19.33;17.33;;;;;;;;4999815;28;45338;-71
2022/10/20 06:35:57;;;;;;;;;21.00;19.67;;;;;;;;4997401;28;45398;-69
2022/10/20 06:38:22;;;;;;;;;22.00;18.67;;;;;;;;4997534;28;45517;-70
2022/10/20 06:40:47;;;;;;;;;22.00;18.33;;;;;;;;5016249;28;45642;-70
2022/10/20 06:43:12;;;;;;;;;18.67;15.67;;;;;;;;5017651;28;45465;-71
2022/10/20 06:45:37;;;;;;;;;20.67;18.67;;;;;;;;5017353;28;45561;-70
2022/10/20 06:48:03;;;;;;;;;17.67;17.00;;;;;;;;5017038;28;45489;-69
2022/10/20 06:50:28;;;;;;;;;19.33;17.33;;;;;;;;5017644;28;45314;-70
2022/10/20 06:52:53;;;;;;;;;27.33;21.33;;;;;;;;5017037;28;45471;-70
2022/10/20 06:55:18;;;;;;;;;26.67;21.00;;;;;;;;5016101;28;46342;-70
2022/10/20 06:57:44;;;;;;;;;22.67;20.33;;;;;;;;5015428;28;45344;-70
2022/10/20 07:00:09;;;;;;;;;21.67;17.00;;;;;;;;5004993;28;45812;-70
2022/10/20 07:02:37;;;;;;;;;25.00;20.00;;;;;;;;5013950;28;45507;-71
2022/10/20 07:05:02;;;;;;;;;23.33;22.00;;;;;;;;5014996;28;45600;-70
2022/10/20 07:07:27;;;;;;;;;25.33;22.33;;;;;;;;5016731;28;45347;-70
2022/10/20 07:09:52;;;;;;;;;24.67;23.33;;;;;;;;5013471;28;45462;-70
2022/10/20 07:12:17;;;;;;;;;24.67;21.00;;;;;;;;5010934;28;45807;-71
2022/10/20 07:14:43;;;;;;;;;23.00;16.67;;;;;;;;5016125;28;46786;-71
2022/10/20 07:17:08;;;;;;;;;24.33;18.33;;;;;;;;5015842;28;45409;-71
2022/10/20 07:19:33;;;;;;;;;23.00;21.00;;;;;;;;5009428;28;45372;-72
2022/10/20 07:21:59;;;;;;;;;23.00;21.33;;;;;;;;5017257;28;45365;-73
2022/10/20 07:24:24;;;;;;;;;19.67;18.33;;;;;;;;5011530;28;46261;-73
2022/10/20 07:26:49;;;;;;;;;18.33;17.67;;;;;;;;5013266;28;45414;-74
2022/10/20 07:29:14;;;;;;;;;17.33;17.33;;;;;;;;5014877;28;45501;-69
2022/10/20 07:31:41;;;;;;;;;20.33;19.00;;;;;;;;5014916;28;45407;-78
2022/10/20 07:34:07;;;;;;;;;20.67;17.67;;;;;;;;5014747;28;46708;-75
2022/10/20 07:36:33;;;;;;;;;17.33;17.00;;;;;;;;5008929;28;45498;-75
2022/10/20 07:38:59;;;;;;;;;17.67;14.00;;;;;;;;5013764;28;46158;-74
2022/10/20 07:41:25;;;;;;;;;15.67;14.33;;;;;;;;5007732;28;45500;-73
2022/10/20 07:43:51;;;;;;;;;28.67;24.33;;;;;;;;5011643;28;46277;-74
2022/10/20 07:46:16;;;;;;;;;22.33;19.33;;;;;;;;5010364;28;45357;-71
2022/10/20 07:48:42;;;;;;;;;19.33;19.33;;;;;;;;5007490;28;45862;-69
2022/10/20 07:51:29;;;;;;;;;29.67;21.00;;;;;;;;5008948;28;45456;-68
2022/10/20 07:53:58;;;;;;;;;19.33;18.67;;;;;;;;5011743;28;47077;-67
2022/10/20 07:56:26;;;;;;;;;18.67;16.67;;;;;;;;5008897;28;45547;-67
2022/10/20 07:58:51;;;;;;;;;23.00;21.00;;;;;;;;5009757;28;45551;-67
2022/10/20 08:01:16;;;;;;;;;19.33;19.00;;;;;;;;5015102;28;45569;-66
2022/10/20 08:03:41;;;;;;;;;20.00;19.00;;;;;;;;5013046;28;45509;-72
2022/10/20 08:06:06;;;;;;;;;23.00;19.67;;;;;;;;5012614;28;46058;-68
2022/10/20 08:08:32;;;;;;;;;31.00;26.67;;;;;;;;5012656;28;45444;-69
2022/10/20 08:10:57;;;;;;;;;23.33;22.67;;;;;;;;5011137;28;45585;-69
2022/10/20 08:13:23;;;;;;;;;28.33;22.00;;;;;;;;5015418;28;45680;-70
2022/10/20 08:15:49;;;;;;;;;20.00;18.67;;;;;;;;5013057;28;45396;-71
2022/10/20 08:18:14;;;;;;;;;40.00;34.67;;;;;;;;5017123;28;45457;-65
2022/10/20 08:20:39;;;;;;;;;29.00;21.00;;;;;;;;5018710;28;45452;-65
2022/10/20 08:23:04;;;;;;;;;25.33;20.67;;;;;;;;5015643;28;46555;-69
2022/10/20 08:25:29;;;;;;;;;23.67;18.67;;;;;;;;5014153;28;45433;-68
2022/10/20 08:27:55;;;;;;;;;25.33;23.00;;;;;;;;5015350;28;45618;-68
2022/10/20 08:30:20;;;;;;;;;25.33;21.67;;;;;;;;5020619;28;46034;-68
2022/10/20 08:32:49;;;;;;;;;23.33;22.33;;;;;;;;5016351;28;47546;-67
2022/10/20 08:35:14;;;;;;;;;22.33;17.00;;;;;;;;5011604;28;45557;-67
2022/10/20 08:37:39;;;;;;;;;22.00;19.33;;;;;;;;5013886;28;45512;-68
2022/10/20 08:40:05;;;;;;;;;20.67;18.00;;;;;;;;5017232;28;45745;-68
2022/10/20 08:42:35;;;;;;;;;19.67;18.00;;;;;;;;5014496;28;46704;-68
2022/10/20 08:45:01;;;;;;;;;23.33;21.33;;;;;;;;5017513;28;45501;-67
2022/10/20 08:47:28;;;;;;;;;22.00;17.67;;;;;;;;5016278;28;45465;-69
2022/10/20 08:49:54;;;;;;;;;21.00;17.33;;;;;;;;5007477;28;45445;-70
2022/10/20 08:52:21;;;;;;;;;16.67;16.67;;;;;;;;5033519;28;46356;-70
2022/10/20 08:54:49;;;;;;;;;22.00;18.67;;;;;;;;5018073;28;45479;-71
2022/10/20 08:57:21;;;;;;;;;21.33;19.33;;;;;;;;5017920;28;45405;-70
2022/10/20 08:59:46;;;;;;;;;28.33;22.00;;;;;;;;5018486;28;45388;-71
2022/10/20 09:02:14;;;;;;;;;18.67;18.00;;;;;;;;5015362;28;45686;-70
2022/10/20 09:04:54;;;;;;;;;17.00;16.33;;;;;;;;5023248;28;45435;-71
2022/10/20 09:07:19;;;;;;;;;20.67;19.33;;;;;;;;5017641;28;45541;-70
2022/10/20 09:09:45;;;;;;;;;21.00;21.00;;;;;;;;5015393;28;45478;-71
2022/10/20 09:12:14;;;;;;;;;15.00;13.00;;;;;;;;5016669;28;45951;-76
2022/10/20 09:14:39;;;;;;;;;23.00;18.67;;;;;;;;5016263;28;45522;-72
2022/10/20 09:17:05;;;;;;;;;21.67;20.67;;;;;;;;5017199;28;45329;-75
2022/10/20 09:19:30;;;;;;;;;21.00;18.00;;;;;;;;5014083;28;45871;-76
2022/10/20 09:21:57;;;;;;;;;20.67;20.67;;;;;;;;5014307;28;46876;-76
2022/10/20 09:24:26;;;;;;;;;24.67;23.67;;;;;;;;5015025;28;45401;-77
2022/10/20 09:26:51;;;;;;;;;37.67;31.33;;;;;;;;5017511;28;45533;-81
2022/10/20 09:29:19;;;;;;;;;26.00;23.67;;;;;;;;5014960;28;45477;-75
2022/10/20 09:31:49;;;;;;;;;28.67;21.67;;;;;;;;5014510;28;46466;-81
2022/10/20 09:34:22;;;;;;;;;21.00;19.67;;;;;;;;5016674;28;45443;-77
2022/10/20 09:36:48;;;;;;;;;26.33;22.67;;;;;;;;5016623;28;45392;-73
2022/10/20 09:39:20;;;;;;;;;17.00;17.00;;;;;;;;5022836;28;45551;-77
2022/10/20 09:41:46;;;;;;;;;19.67;19.33;;;;;;;;5017527;28;46269;-71
2022/10/20 09:44:22;;;;;;;;;27.00;22.33;;;;;;;;5016227;28;45324;-73
2022/10/20 09:46:49;;;;;;;;;23.67;20.67;;;;;;;;5016486;28;45655;-75
2022/10/20 09:49:26;;;;;;;;;22.00;20.67;;;;;;;;5015352;28;45515;-76
2022/10/20 09:51:52;;;;;;;;;23.67;21.00;;;;;;;;5017185;28;45471;-79
2022/10/20 09:54:18;;;;;;;;;26.67;22.67;;;;;;;;5014525;28;45549;-74
2022/10/20 09:56:45;;;;;;;;;19.33;18.67;;;;;;;;5016397;28;45750;-68
2022/10/20 09:59:19;;;;;;;;;18.33;14.67;;;;;;;;5015836;28;45744;-68
2022/10/20 10:01:55;;;;;;;;;28.00;25.33;;;;;;;;5016682;28;46101;-73
2022/10/20 10:04:37;;;;;;;;;26.00;22.67;;;;;;;;5002184;28;45413;-73
2022/10/20 10:07:04;;;;;;;;;21.00;19.33;;;;;;;;4997411;28;45396;-72
2022/10/20 10:09:33;;;;;;;;;23.00;20.00;;;;;;;;5005547;28;45408;-72
2022/10/20 10:12:02;;;;;;;;;21.00;20.33;;;;;;;;5026214;28;46545;-72
2022/10/20 10:14:28;;;;;;;;;27.33;21.33;;;;;;;;5036729;28;45359;-72
2022/10/20 10:16:54;;;;;;;;;26.67;23.00;;;;;;;;5037171;28;45342;-73
2022/10/20 10:19:21;;;;;;;;;23.33;18.33;;;;;;;;5015622;28;45604;-71
2022/10/20 10:21:57;;;;;;;;;25.33;19.33;;;;;;;;5016748;28;45532;-70
2022/10/20 10:24:42;;;;;;;;;21.33;20.33;;;;;;;;4997946;28;45428;-71
2022/10/20 10:27:19;;;;;;;;;26.33;21.33;;;;;;;;4997309;28;45443;-70
2022/10/20 10:29:45;;;;;;;;;23.00;20.00;;;;;;;;5016817;28;45357;-71
2022/10/20 10:32:26;;;;;;;;;22.00;20.00;;;;;;;;5016165;28;46103;-70
2022/10/20 10:35:06;;;;;;;;;21.33;18.00;;;;;;;;5013653;28;45499;-72
2022/10/20 10:37:32;;;;;;;;;23.33;20.00;;;;;;;;5016934;28;45390;-73
2022/10/20 10:39:58;;;;;;;;;24.67;21.33;;;;;;;;5016855;28;45422;-70
2022/10/20 10:42:44;;;;;;;;;22.67;20.00;;;;;;;;5016331;28;45396;-75
2022/10/20 10:45:15;;;;;;;;;18.00;13.25;;;;;;;;5016251;28;45462;-69
2022/10/20 10:48:05;;;;;;;;;24.33;20.33;;;;;;;;5016802;28;45416;-70
2022/10/20 10:51:00;;;;;;;;;19.00;17.33;;;;;;;;5016650;28;45746;-74
2022/10/20 10:53:31;;;;;;;;;18.00;14.67;;;;;;;;4994098;28;46703;-74
2022/10/20 10:56:06;;;;;;;;;22.00;20.67;;;;;;;;4993482;28;45531;-75
2022/10/20 10:58:50;;;;;;;;;19.33;15.67;;;;;;;;4993331;28;45506;-75
2022/10/20 11:01:18;;;;;;;;;24.67;21.33;;;;;;;;4994339;28;45538;-74
2022/10/20 11:04:02;;;;;;;;;15.33;15.00;;;;;;;;4993222;28;45648;-74
2022/10/20 11:06:39;;;;;;;;;18.00;12.33;;;;;;;;4993416;28;45398;-74
2022/10/20 11:09:27;;;;;;;;;20.00;15.67;;;;;;;;4993797;28;45505;-74
2022/10/20 11:11:54;;;;;;;;;13.00;12.25;;;;;;;;4897732;29;45445;-74
2022/10/20 11:14:38;;;;;;;;;16.33;14.33;;;;;;;;4896255;29;47346;-74
2022/10/20 11:17:23;;;;;;;;;18.00;15.67;;;;;;;;4896566;29;45455;-75
2022/10/20 11:19:58;;;;;;;;;44.00;33.67;;;;;;;;4829414;29;45411;-76
2022/10/20 11:22:23;;;;;;;;;14.67;12.33;;;;;;;;4824687;29;45450;-73
2022/10/20 11:24:49;;;;;;;;;14.50;13.50;;;;;;;;4837063;29;46527;-72
2022/10/20 11:27:24;;;;;;;;;12.25;11.00;;;;;;;;4836874;29;45457;-70
2022/10/20 11:30:03;;;;;;;;;12.67;12.67;;;;;;;;4848884;29;45515;-69
2022/10/20 11:32:47;;;;;;;;;16.33;12.67;;;;;;;;4878861;29;45655;-70
2022/10/20 11:35:15;;;;;;;;;13.50;13.50;;;;;;;;4860428;29;46494;-71
2022/10/20 11:37:53;;;;;;;;;17.75;13.00;;;;;;;;4877880;29;45577;-70
2022/10/20 11:40:22;;;;;;;;;15.33;13.33;;;;;;;;4878359;29;45352;-71
2022/10/20 11:43:05;;;;;;;;;27.33;23.00;;;;;;;;4880385;29;45557;-71
2022/10/20 11:45:30;;;;;;;;;19.33;17.33;;;;;;;;4881401;29;45482;-72
2022/10/20 11:47:59;;;;;;;;;14.33;13.67;;;;;;;;4887662;28;45407;-72
2022/10/20 11:50:24;;;;;;;;;15.33;13.00;;;;;;;;4938927;28;45740;-72
2022/10/20 11:52:50;;;;;;;;;15.75;14.75;;;;;;;;4939648;28;45557;-72
2022/10/20 11:55:36;;;;;;;;;12.00;11.00;;;;;;;;4928319;28;46535;-72
2022/10/20 11:58:04;;;;;;;;;12.50;10.00;;;;;;;;5014020;28;45540;-72
2022/10/20 12:00:29;;;;;;;;;10.00;10.00;;;;;;;;5018083;28;45535;-72
2022/10/20 12:02:57;;;;;;;;;13.00;11.67;;;;;;;;5019508;28;45425;-72
2022/10/20 12:05:37;;;;;;;;;8.50;8.50;;;;;;;;5019150;28;46204;-72
2022/10/20 12:08:19;;;;;;;;;12.75;12.75;;;;;;;;5018702;28;45461;-66
2022/10/20 12:10:56;;;;;;;;;9.75;8.25;;;;;;;;5018058;28;45536;-70
2022/10/20 12:13:24;;;;;;;;;13.50;11.25;;;;;;;;5019060;28;45573;-74
2022/10/20 12:15:51;;;;;;;;;12.50;11.50;;;;;;;;5017662;28;45799;-71
2022/10/20 12:18:27;;;;;;;;;12.50;9.00;;;;;;;;5017819;28;45641;-70
2022/10/20 12:20:55;;;;;;;;;15.33;12.33;;;;;;;;5007395;28;45483;-68
2022/10/20 12:23:38;;;;;;;;;10.75;9.75;;;;;;;;5018061;28;45393;-68
2022/10/20 12:26:23;;;;;;;;;9.00;9.00;;;;;;;;5017438;28;45290;-70
2022/10/20 12:28:49;;;;;;;;;8.00;7.50;;;;;;;;5017195;28;45568;-68
2022/10/20 12:31:14;;;;;;;;;13.25;10.25;;;;;;;;5016038;28;45400;-69
2022/10/20 12:33:59;;;;;;;;;8.00;7.75;;;;;;;;5016730;28;45456;-66
2022/10/20 12:36:27;;;;;;;;;7.50;6.25;;;;;;;;5015627;28;46440;-67
2022/10/20 12:39:06;;;;;;;;;7.75;6.75;;;;;;;;5012714;28;45370;-66
2022/10/20 12:41:33;;;;;;;;;11.75;7.00;;;;;;;;5018632;28;45393;-68
2022/10/20 12:44:00;;;;;;;;;6.50;6.50;;;;;;;;5018000;28;45384;-72
2022/10/20 12:46:27;;;;;;;;;8.00;6.00;;;;;;;;5018369;28;45399;-68
2022/10/20 12:48:58;;;;;;;;;9.00;6.75;;;;;;;;5018050;28;45452;-68
2022/10/20 12:51:35;;;;;;;;;6.00;6.00;;;;;;;;5017397;28;45586;-68
2022/10/20 12:54:06;;;;;;;;;7.75;5.25;;;;;;;;5014360;28;45407;-67
2022/10/20 12:56:34;;;;;;;;;5.25;5.25;;;;;;;;5015639;28;46720;-69
2022/10/20 12:59:25;;;;;;;;;6.50;3.75;;;;;;;;5001953;28;45640;-69
2022/10/20 13:02:15;;;;;;;;;3.75;3.00;;;;;;;;5011756;28;45590;-73
2022/10/20 13:04:56;;;;;;;;;7.00;7.00;;;;;;;;5018292;28;45205;-74
2022/10/20 13:07:40;;;;;;;;;4.25;3.00;;;;;;;;5017759;28;46580;-73
2022/10/20 13:10:24;;;;;;;;;7.00;4.00;;;;;;;;5017867;28;45370;-74
2022/10/20 13:12:49;;;;;;;;;4.25;4.25;;;;;;;;5018121;28;45376;-71
2022/10/20 13:15:18;;;;;;;;;3.00;3.00;;;;;;;;5017217;28;45443;-71
2022/10/20 13:17:51;;;;;;;;;5.00;3.00;;;;;;;;4997597;28;46424;-70
2022/10/20 13:20:24;;;;;;;;;2.50;2.50;;;;;;;;5016231;28;45436;-70
2022/10/20 13:22:51;;;;;;;;;3.00;3.00;;;;;;;;5018058;28;45392;-70
2022/10/20 13:25:19;;;;;;;;;2.00;2.00;;;;;;;;5017978;28;45383;-76
2022/10/20 13:27:46;;;;;;;;;2.25;1.25;;;;;;;;5017220;28;46691;-73
2022/10/20 13:30:18;;;;;;;;;2.75;1.25;;;;;;;;5017275;28;45407;-75
2022/10/20 13:33:01;;;;;;;;;1.75;1.75;;;;;;;;5017803;28;45399;-76
2022/10/20 13:35:38;;;;;;;;;2.25;2.00;;;;;;;;5015877;28;45923;-77
2022/10/20 13:38:22;;;;;;;;;3.00;3.00;;;;;;;;5014845;28;45637;-72
2022/10/20 13:40:50;;;;;;;;;1.00;1.00;;;;;;;;5017526;28;45414;-72
2022/10/20 13:43:27;;;;;;;;;1.00;1.00;;;;;;;;5017669;28;45458;-71
2022/10/20 13:45:55;;;;;;;;;0.50;0.50;;;;;;;;5017584;28;45427;-72
2022/10/20 13:48:39;;;;;;;;;1.50;1.00;;;;;;;;5017049;28;45428;-72
2022/10/20 13:51:26;;;;;;;;;2.00;1.00;;;;;;;;5014781;28;45549;-73
2022/10/20 13:53:55;;;;;;;;;0.50;0.50;;;;;;;;5015159;28;45460;-81
2022/10/20 13:56:29;;;;;;;;;1.00;1.00;;;;;;;;5016481;28;45516;-73
2022/10/20 13:59:02;;;;;;;;;0.75;0.75;;;;;;;;5015153;28;46323;-72
2022/10/20 14:01:29;;;;;;;;;2.00;2.00;;;;;;;;5017095;28;45411;-73
2022/10/20 14:03:55;;;;;;;;;1.00;1.00;;;;;;;;5017666;28;45431;-73
2022/10/20 14:06:26;;;;;;;;;0.75;0.75;;;;;;;;5014929;28;45430;-71
2022/10/20 14:08:56;;;;;;;;;2.00;1.00;;;;;;;;5015898;28;46546;-70
2022/10/20 14:11:22;;;;;;;;;1.50;1.50;;;;;;;;5017296;28;45404;-73
2022/10/20 14:13:47;;;;;;;;;3.00;1.00;;;;;;;;5017126;28;45415;-71
2022/10/20 14:16:18;;;;;;;;;1.00;1.00;;;;;;;;5015151;28;45468;-74
2022/10/20 14:18:57;;;;;;;;;0.75;0.50;;;;;;;;5015640;28;46634;-73
2022/10/20 14:21:23;;;;;;;;;1.25;1.25;;;;;;;;5015978;28;45368;-75
2022/10/20 14:23:49;;;;;;;;;1.75;1.75;;;;;;;;5016542;28;45537;-73
2022/10/20 14:26:17;;;;;;;;;0.00;0.00;;;;;;;;5016988;28;45444;-77
2022/10/20 14:28:43;;;;;;;;;2.75;2.25;;;;;;;;5016687;28;46368;-80
2022/10/20 14:31:12;;;;;;;;;3.50;2.00;;;;;;;;4997969;28;45407;-75